Ivs Hirono — 9V3263 — position and weather

sailwx.info

Track history (hours):
 
Tides and Currents Weather Stations Pressure Air Temp Water Temp Dewpoint Dewpoint Depression Visibility Wind Speed Wind Dir Waves Ship Positions

Ivs Hirono

Last reported at 2017-Dec-22 04:12 UTC. Time now 2018-Feb-19 01:56 UTC.
Position S 28°49' E 032°03'.
Warning: this ship's position is 58 days out of date.

Length 199 m; draft 6.9 m.

Type: Cargo ship. MMSI: 563094000.

Date/timePositionNaut miles runAvg speedWind from/ knotsBaromVisibWave heightAir tempDewpointWater temp
2017-Dec-22 04:12S 28°49' E 032°03'0 0.0
2017-Dec-22 03:51S 28°49' E 032°03'0 0.0
2017-Dec-22 03:30S 28°49' E 032°03'0 0.0
2017-Dec-22 02:51S 28°49' E 032°03'0 0.0
2017-Dec-22 02:00S 28°49' E 032°03'0 0.0
2017-Dec-21 12:48S 28°49' E 032°03'0 0.0
2017-Dec-21 12:30S 28°49' E 032°03'0 0.0
2017-Dec-21 12:00S 28°49' E 032°03'0 0.0
2017-Dec-21 11:30S 28°49' E 032°03'0 0.0
2017-Dec-21 11:00S 28°49' E 032°03'0 0.0
2017-Dec-20 19:30S 28°49' E 032°03'0 0.0
2017-Dec-20 16:06S 28°49' E 032°03'0 0.0
2017-Dec-20 15:54S 28°49' E 032°03'0 0.0
2017-Dec-20 15:21S 28°49' E 032°03'0 0.0
2017-Dec-20 14:18S 28°49' E 032°03'0 0.0
2017-Dec-20 14:00S 28°49' E 032°03'0 0.0
2017-Dec-20 13:21S 28°49' E 032°03'0 0.0
2017-Dec-20 13:00S 28°49' E 032°03'0 0.0
2017-Dec-20 12:24S 28°49' E 032°03'0 0.0
2017-Dec-20 12:00S 28°49' E 032°03'0 0.0
2017-Dec-20 11:30S 28°49' E 032°03'0 0.0
2017-Dec-20 11:00S 28°49' E 032°03'8 1.4
2017-Dec-20 05:40S 28°54' E 032°10'1 3.6
2017-Dec-20 05:31S 28°55' E 032°09'5 0.1
2017-Dec-18 16:16S 28°57' E 032°05'0 0.1
2017-Dec-18 15:52S 28°57' E 032°05'0 0.0
2017-Dec-18 15:28S 28°57' E 032°05'0 0.0
2017-Dec-18 14:58S 28°57' E 032°05'0 0.0
2017-Dec-18 14:28S 28°57' E 032°05'0 0.0
2017-Dec-18 06:16S 28°57' E 032°05'0 0.0
2017-Dec-17 20:40S 28°57' E 032°05'0 0.0
2017-Dec-17 20:22S 28°57' E 032°05'0 0.0
2017-Dec-17 19:58S 28°57' E 032°05'0 0.0
2017-Dec-17 06:27S 28°57' E 032°05'0 0.1
2017-Dec-17 05:57S 28°57' E 032°05'0 0.1
2017-Dec-17 05:30S 28°57' E 032°05'5 4.4
2017-Dec-17 04:18S 28°60' E 032°10'10 1.4
2017-Dec-16 21:13S 28°53' E 032°18'1 2.9
2017-Dec-16 20:52S 28°54' E 032°18'6 2.4
2017-Dec-16 18:10S 28°59' E 032°14'1 3.2
2017-Dec-16 17:48S 28°60' E 032°13'1 3.5
2017-Dec-16 17:29S 29°00' E 032°12'4 6.1
2017-Dec-16 16:50S 29°01' E 032°07'2 4.3
2017-Dec-16 16:26S 28°60' E 032°05'0 0.2
2017-Dec-16 15:59S 28°60' E 032°05'0 0.1
2017-Dec-16 15:29S 28°60' E 032°05'0 0.1
2017-Dec-16 14:59S 28°60' E 032°05'0 0.1
2017-Dec-16 14:29S 28°60' E 032°05'0 0.1
2017-Dec-16 13:56S 28°60' E 032°05'0 0.1
2017-Dec-16 13:29S 28°60' E 032°05'0 0.1
2017-Dec-16 12:59S 28°60' E 032°05'0 0.1
2017-Dec-16 12:29S 28°60' E 032°05'0 0.1
2017-Dec-16 11:59S 28°60' E 032°06'0 0.1
2017-Dec-16 11:29S 28°60' E 032°06'0 0.0
2017-Dec-16 10:59S 28°60' E 032°05'0 0.0
2017-Dec-16 10:29S 28°60' E 032°05'0 0.1
2017-Dec-16 09:59S 28°60' E 032°06'0 0.0
2017-Dec-16 09:29S 28°60' E 032°06'  
Track history (hours):
 
Tides and Currents Weather Stations Pressure Air Temp Water Temp Dewpoint Dewpoint Depression Visibility Wind Speed Wind Dir Waves Ship Positions

Ivs Hirono

Last reported at 2017-Dec-22 04:12 UTC. Time now 2018-Feb-19 01:56 UTC.
Position S 28°49' E 032°03'.
Warning: this ship's position is 58 days out of date.

Length 199 m; draft 6.9 m.

Type: Cargo ship. MMSI: 563094000.

Date/timePositionNaut miles runAvg speedWind from/ knotsBaromVisibWave heightAir tempDewpointWater temp
2017-Dec-22 04:12S 28°49' E 032°03'0 0.0
2017-Dec-22 03:51S 28°49' E 032°03'0 0.0
2017-Dec-22 03:30S 28°49' E 032°03'0 0.0
2017-Dec-22 02:51S 28°49' E 032°03'0 0.0
2017-Dec-22 02:00S 28°49' E 032°03'0 0.0
2017-Dec-21 12:48S 28°49' E 032°03'0 0.0
2017-Dec-21 12:30S 28°49' E 032°03'0 0.0
2017-Dec-21 12:00S 28°49' E 032°03'0 0.0
2017-Dec-21 11:30S 28°49' E 032°03'0 0.0
2017-Dec-21 11:00S 28°49' E 032°03'0 0.0
2017-Dec-20 19:30S 28°49' E 032°03'0 0.0
2017-Dec-20 16:06S 28°49' E 032°03'0 0.0
2017-Dec-20 15:54S 28°49' E 032°03'0 0.0
2017-Dec-20 15:21S 28°49' E 032°03'0 0.0
2017-Dec-20 14:18S 28°49' E 032°03'0 0.0
2017-Dec-20 14:00S 28°49' E 032°03'0 0.0
2017-Dec-20 13:21S 28°49' E 032°03'0 0.0
2017-Dec-20 13:00S 28°49' E 032°03'0 0.0
2017-Dec-20 12:24S 28°49' E 032°03'0 0.0
2017-Dec-20 12:00S 28°49' E 032°03'0 0.0
2017-Dec-20 11:30S 28°49' E 032°03'0 0.0
2017-Dec-20 11:00S 28°49' E 032°03'8 1.4
2017-Dec-20 05:40S 28°54' E 032°10'1 3.6
2017-Dec-20 05:31S 28°55' E 032°09'5 0.1
2017-Dec-18 16:16S 28°57' E 032°05'0 0.1
2017-Dec-18 15:52S 28°57' E 032°05'0 0.0
2017-Dec-18 15:28S 28°57' E 032°05'0 0.0
2017-Dec-18 14:58S 28°57' E 032°05'0 0.0
2017-Dec-18 14:28S 28°57' E 032°05'0 0.0
2017-Dec-18 06:16S 28°57' E 032°05'0 0.0
2017-Dec-17 20:40S 28°57' E 032°05'0 0.0
2017-Dec-17 20:22S 28°57' E 032°05'0 0.0
2017-Dec-17 19:58S 28°57' E 032°05'0 0.0
2017-Dec-17 06:27S 28°57' E 032°05'0 0.1
2017-Dec-17 05:57S 28°57' E 032°05'0 0.1
2017-Dec-17 05:30S 28°57' E 032°05'5 4.4
2017-Dec-17 04:18S 28°60' E 032°10'10 1.4
2017-Dec-16 21:13S 28°53' E 032°18'1 2.9
2017-Dec-16 20:52S 28°54' E 032°18'6 2.4
2017-Dec-16 18:10S 28°59' E 032°14'1 3.2
2017-Dec-16 17:48S 28°60' E 032°13'1 3.5
2017-Dec-16 17:29S 29°00' E 032°12'4 6.1
2017-Dec-16 16:50S 29°01' E 032°07'2 4.3
2017-Dec-16 16:26S 28°60' E 032°05'0 0.2
2017-Dec-16 15:59S 28°60' E 032°05'0 0.1
2017-Dec-16 15:29S 28°60' E 032°05'0 0.1
2017-Dec-16 14:59S 28°60' E 032°05'0 0.1
2017-Dec-16 14:29S 28°60' E 032°05'0 0.1
2017-Dec-16 13:56S 28°60' E 032°05'0 0.1
2017-Dec-16 13:29S 28°60' E 032°05'0 0.1
2017-Dec-16 12:59S 28°60' E 032°05'0 0.1
2017-Dec-16 12:29S 28°60' E 032°05'0 0.1
2017-Dec-16 11:59S 28°60' E 032°06'0 0.1
2017-Dec-16 11:29S 28°60' E 032°06'0 0.0
2017-Dec-16 10:59S 28°60' E 032°05'0 0.0
2017-Dec-16 10:29S 28°60' E 032°05'0 0.1
2017-Dec-16 09:59S 28°60' E 032°06'0 0.0
2017-Dec-16 09:29S 28°60' E 032°06'  

Dump ship's entire track history